METAR Data
IDs: Format: Raw Decoded Include TAF

Data at: 0857 UTC 26 Jan 2020

KSBM 260853Z AUTO 29005KT 10SM BKN013 BKN018 OVC024 01/M01 A2983 RMK AO2 SLP110 60000 T00111006 53002
KSBM 260844Z AUTO 30007KT 10SM SCT013 BKN019 OVC024 01/M01 A2983 RMK AO2 T00111006
KSBM 260753Z AUTO 29009KT 10SM OVC010 01/M01 A2983 RMK AO2 UPE11 SLP108 P0000 T00111006
KSBM 260737Z AUTO 29007KT 10SM OVC009 01/M01 A2983 RMK AO2 UPE11 P0000 T00111006
KSBM 260722Z AUTO 29005KT 10SM OVC010 01/M01 A2983 RMK AO2 UPE11 CIG 006V012 P0000 T00111006
KSBM 260712Z AUTO 30004KT 10SM OVC009 01/M01 A2982 RMK AO2 UPE11 CIG 006V013 P0000 T00111006
KSBM 260653Z AUTO 28006KT 9SM UP BKN010 OVC013 01/00 A2983 RMK AO2 UPE06B32SNB06E23B41E53 CIG 006V011 SLP108 P0000 T00110000
KSBM 260636Z AUTO 29006KT 9SM UP BKN012 OVC017 01/M01 A2983 RMK AO2 UPE06B32SNB06E23 P0000 T00111006
KSBM 260553Z AUTO 30007KT 10SM UP OVC008 01/M01 A2982 RMK AO2 UPB22SNB13E22 SLP107 P0001 60001 T00111006 10017 20011 400170006 52004
KSBM 260453Z AUTO 28007KT 8SM OVC006 01/00 A2982 RMK AO2 SLP106 T00110000
KSBM 260353Z AUTO 28006KT 9SM OVC006 01/00 A2981 RMK AO2 SLP104 T00110000
KSBM 260253Z AUTO 28007KT 10SM BKN007 OVC014 01/M01 A2981 RMK AO2 SLP103 T00111006 58001
KSBM 260236Z AUTO 28005KT 10SM SCT008 OVC015 01/M01 A2981 RMK AO2 T00111006
KSBM 260153Z AUTO 31006KT 10SM OVC016 01/M01 A2981 RMK AO2 SLP104 T00111006
KSBM 260142Z AUTO 31005KT 10SM BKN012 OVC018 01/M01 A2981 RMK AO2 T00111006
KSBM 260053Z AUTO 30005KT 8SM OVC006 01/M01 A2981 RMK AO2 SLP104 T00111006
KSBM 260028Z AUTO 32006KT 7SM OVC005 01/00 A2981 RMK AO2 T00110000
KSBM 252253Z AUTO 31006KT 4SM BR OVC004 01/M01 A2979 RMK AO2 SLP097 T00111006
KSBM 252153Z AUTO 31007KT 4SM BR OVC004 01/M01 A2978 RMK AO2 SLP094 T00111006
KSBM 252145Z AUTO 31005KT 4SM BR OVC004 01/M01 A2978 RMK AO2 T00111006
KSBM 252053Z AUTO 30007KT 6SM BR OVC007 01/M01 A2977 RMK AO2 SLP089 T00111006 53002
KSBM 251953Z AUTO 30009KT 8SM OVC008 01/M01 A2976 RMK AO2 SLP084 T00111011
KSBM 251853Z AUTO 30008KT 6SM BR OVC007 01/M01 A2975 RMK AO2 SLP084 T00111011
KSBM 251753Z AUTO 29005KT 7SM OVC006 01/M01 A2976 RMK AO2 SLP087 60000 T00111006 10011 20006 50002
KSBM 251653Z AUTO 33004KT 8SM OVC006 01/M01 A2978 RMK AO2 SLP091 T00111006
KSBM 251553Z AUTO 33004KT 7SM OVC006 01/M01 A2976 RMK AO2 SLP087 T00111006
KSBM 251453Z AUTO 33004KT 9SM OVC006 01/M01 A2976 RMK AO2 SLP085 60000 T00111006 51010
KSBM 251353Z AUTO 31004KT 3SM BR OVC006 01/M01 A2976 RMK AO2 SNB30E48 SLP084 P0000 T00061006
KSBM 251253Z AUTO 00000KT 8SM OVC005 01/M01 A2974 RMK AO2 SLP080 T00061006
KSBM 251153Z AUTO 33004KT 8SM OVC005 01/M01 A2973 RMK AO2 SLP075 P0001 60009 70031 T00061006 10006 20006 56002
KSBM 251053Z AUTO 31004KT 6SM BR BKN006 OVC031 01/M01 A2973 RMK AO2 SNE13 SLP076 P0001 T00061006
KSBM 251029Z AUTO 29004KT 3SM BR FEW003 OVC032 01/M01 A2973 RMK AO2 SNE13 P0001 T00061006
KSBM 251021Z AUTO 29003KT 2 1/2SM BR SCT003 OVC034 01/M01 A2972 RMK AO2 SNE13 P0001 T00061006
KSBM 250953Z AUTO 34003KT 2SM -SN BR BKN002 OVC022 01/M01 A2973 RMK AO2 SLP075 P0002 T00061006
KSBM 250946Z AUTO 34003KT 1 3/4SM -SN BR BKN002 OVC022 01/M01 A2973 RMK AO2 P0002 T00061006
KSBM 250931Z AUTO 34003KT 1 3/4SM -SN BR FEW003 OVC024 01/M01 A2973 RMK AO2 P0001 T00061006
KSBM 250921Z AUTO 35003KT 2SM -SN BR FEW003 BKN024 OVC031 01/M01 A2973 RMK AO2 P0001 T00061006
KSBM 250912Z AUTO 35004KT 2SM -SN BR FEW014 OVC029 01/M01 A2973 RMK AO2 P0001 T00061006
KSBM 250906Z AUTO 34004KT 1 3/4SM -SN BR FEW003 SCT010 OVC031 01/M01 A2973 RMK AO2 P0001 T00061006
KSBM 250853Z AUTO 34003KT 2 1/2SM -SN BR SCT003 OVC012 01/M01 A2974 RMK AO2 SLP077 P0001 60005 T00061006 58002
KSBM 250753Z AUTO 01004KT 2 1/2SM -SN BR OVC004 01/00 A2974 RMK AO2 SLP079 P0002 T00060000
KSBM 250735Z AUTO 01003KT 2 1/2SM -SN BR OVC004 01/00 A2974 RMK AO2 P0001 T00060000
KSBM 250653Z AUTO 36005KT 3SM -SN BR OVC004 01/M01 A2974 RMK AO2 SLP078 P0002 T00061006
KSBM 250650Z AUTO 36005KT 3SM -SN BR OVC004 01/00 A2974 RMK AO2 P0002
KSBM 250635Z AUTO 01003KT 2SM -SN BR OVC005 01/00 A2974 RMK AO2 P0001 T00060000
KSBM 250602Z AUTO 34005KT 1 1/2SM -SN BR SCT003 OVC009 01/M01 A2975 RMK AO2 P0001 T00061006
KSBM 250553Z AUTO 35006KT 1 3/4SM -SN BR BKN003 OVC011 01/M01 A2975 RMK AO2 SLP080 P0001 60008 T00061006 10006 20006 400280006 58010
KSBM 250528Z AUTO 35005KT 1 3/4SM -SN BR OVC003 01/M01 A2976 RMK AO2 P0001 T00061006
KSBM 250511Z AUTO 34005KT 3SM -SN BR OVC004 01/00 A2976 RMK AO2 P0000 T00060000
KSBM 250504Z AUTO 35004KT 2 1/2SM -SN BR OVC004 01/00 A2976 RMK AO2 P0000 T00060000
KSBM 250453Z AUTO 35004KT 1 3/4SM -SN BR OVC004 01/M01 A2977 RMK AO2 SLP087 P0002 T00061006
KSBM 250449Z AUTO 35005KT 1 1/2SM -SN BR OVC004 01/M01 A2977 RMK AO2 P0001
KSBM 250402Z AUTO 34006KT 2SM -SN BR OVC004 01/M01 A2977 RMK AO2 P0000 T00061006
KSBM 250353Z AUTO 35004KT 1 3/4SM -SN BR OVC003 01/M01 A2978 RMK AO2 UPB0255E18SNB0254E0255B18 SLP092 P0002 T00061006
KSBM 250323Z AUTO 01004KT 1 1/2SM -SN BR OVC003 01/00 A2979 RMK AO2 UPB0255E18SNB0254E0255B18 P0001 T00060000
KSBM 250253Z AUTO 01005KT 2SM BR OVC002 01/00 A2979 RMK AO2 SLP097 P0001 60003 T00060000 56009
KSBM 250242Z AUTO 01005KT 2SM BR OVC002 01/M01 A2979 RMK AO2 P0001 T00061006
KSBM 250208Z AUTO 02005KT 1 1/2SM BR OVC002 01/M01 A2980 RMK AO2 T00061006
KSBM 250201Z AUTO 02004KT 2SM BR OVC002 01/M01 A2980 RMK AO2 T00061006
KSBM 250153Z AUTO 03004KT 3SM BR OVC002 01/M01 A2980 RMK AO2 SNE28 SLP101 P0002 T00061006
KSBM 250127Z AUTO 03006KT 3SM -SN BR OVC003 01/M01 A2981 RMK AO2 P0001 T00061006
KSBM 250109Z AUTO 04006KT 2 1/2SM -SN BR OVC003 01/M01 A2981 RMK AO2 P0001 T00061006
KSBM 250053Z AUTO 02006KT 1 1/4SM -SN BR OVC003 01/M01 A2981 RMK AO2 SLP102 P0000 T00061006
KSBM 250038Z AUTO 02006KT 1SM -SN BR OVC003 01/M01 A2981 RMK AO2 P0000 T00061006
KSBM 250028Z AUTO 05006KT 3/4SM -SN BR OVC003 01/M01 A2981 RMK AO2 P0000 T00061006
KSBM 250020Z AUTO 05006KT 1SM -SN BR OVC003 01/M01 A2981 RMK AO2 P0000 T00061006
KSBM 250002Z AUTO 04005KT 3/4SM -SN BR OVC003 01/M01 A2982 RMK AO2 P0000 T00061006
KSBM 242353Z AUTO 04005KT 1SM -SN BR OVC003 01/M01 A2982 RMK AO2 SLP107 P0002 60009 T00061006 10022 20006 56007
KSBM 242315Z AUTO 05006KT 1 3/4SM -SN BR OVC003 01/00 A2983 RMK AO2 P0001 T00060000
KSBM 242253Z AUTO 07009KT 2SM -SN BR OVC003 01/00 A2983 RMK AO2 UPB01E04RAB04E41SNB41 SLP109 P0004 T00110000
KSBM 242244Z AUTO 06007KT 1 3/4SM -SN BR OVC003 01/00 A2983 RMK AO2 UPB01E04RAB04E41SNB41 P0003 T00110000
KSBM 242226Z AUTO 06008KT 2SM -RA BR OVC003 02/01 A2983 RMK AO2 UPB01E04RAB04 P0001 T00170006
KSBM 242207Z AUTO 06007KT 1SM -RA BR OVC002 02/01 A2983 RMK AO2 UPB01E04RAB04 P0000 T00170006
KSBM 242153Z AUTO 05007KT 3/4SM BR OVC003 02/01 A2983 RMK AO2 UPE21B37E48RAB21E37 SLP110 P0001 T00170006
KSBM 242105Z AUTO 08006KT 1SM UP BR OVC002 02/01 A2984 RMK AO2 P0000 T00220011